aviador You're here:

WBKL Decoded Metar

LABUAN in MALAYSIA
Report Time2017-07-26 04:00:00
UTC Time2017-07-26 04:43:18
Flight Rules vfr VFR
WindVRB at 02 kt
Visibility9999 m
Phenomena:N/A
Clouds:Few 012 Hf
Broken 300 Hf
Expected CloudBase > 2,000 ft AGL from Temp-Dew spread
Ceiling30,000 ft
Temp31°C (ISA +16)
Dew Point26°C (75% RH)
Heat Index39.2°C
QNH1008 hPa
Density Alt2,559 ft
Elevation98 ft
Report Wrong Elevation
Raw Report
METAR WBKL 260400Z VRB02KT 9999 FEW012 BKN300 31/26 Q1008=

Extra information for WBKL:More info

Metar Taf Metar & Taf Last 4 Metars F.Rules Stats Wind Profile Meteogram Temp Stats Airport Information Weather charts Add Link Nearby VenuesMetar ALERT Operation Metar Decoded Social comments